createdAt,value
2022-12-31T00:01:09.773Z,-1.13
2022-12-31T00:03:56.750Z,-1.09
2022-12-31T00:06:41.595Z,-1.14
2022-12-31T00:09:26.397Z,-1.09
2022-12-31T00:12:10.947Z,-1.16
2022-12-31T00:14:55.860Z,-1.20
2022-12-31T00:17:40.515Z,-1.34
2022-12-31T00:20:25.616Z,-1.44
2022-12-31T00:23:10.900Z,-1.46
2022-12-31T00:25:55.332Z,-1.51
2022-12-31T00:28:40.859Z,-1.58
2022-12-31T00:31:28.495Z,-1.59
2022-12-31T00:34:13.246Z,-1.62
2022-12-31T00:36:58.097Z,-1.64
2022-12-31T00:39:42.612Z,-1.67
2022-12-31T00:42:27.563Z,-1.75
2022-12-31T00:45:12.072Z,-1.88
2022-12-31T00:47:56.959Z,-1.93
2022-12-31T00:50:41.469Z,-1.97
2022-12-31T00:53:27.263Z,-1.98
2022-12-31T00:56:15.213Z,-2.04
2022-12-31T00:59:00.484Z,-2.05
2022-12-31T01:01:45.791Z,-1.96
2022-12-31T01:04:30.368Z,-1.86
2022-12-31T01:07:15.105Z,-1.82
2022-12-31T01:09:59.963Z,-1.79
2022-12-31T01:12:44.903Z,-1.76
2022-12-31T01:15:35.989Z,-1.75
2022-12-31T01:18:20.563Z,-1.64
2022-12-31T01:21:07.861Z,-1.56
2022-12-31T01:23:52.597Z,-1.44
2022-12-31T01:26:38.370Z,-1.35
2022-12-31T01:29:23.041Z,-1.28
2022-12-31T01:32:07.833Z,-1.31
2022-12-31T01:34:52.932Z,-1.36
2022-12-31T01:37:38.425Z,-1.43
2022-12-31T01:40:23.499Z,-1.55
2022-12-31T01:43:20.381Z,-1.61
2022-12-31T01:46:05.242Z,-1.65
2022-12-31T01:48:53.647Z,-1.64
2022-12-31T01:51:40.979Z,-1.65
2022-12-31T01:54:29.193Z,-1.60
2022-12-31T01:57:15.142Z,-1.57
2022-12-31T02:00:01.200Z,-1.48
2022-12-31T02:02:46.073Z,-1.45
2022-12-31T02:05:42.149Z,-1.39
2022-12-31T02:08:27.062Z,-1.36
2022-12-31T02:11:25.242Z,-1.31
2022-12-31T02:14:17.996Z,-1.28
2022-12-31T02:17:02.867Z,-1.29
2022-12-31T02:20:00.447Z,-1.31
2022-12-31T02:23:12.651Z,-1.27
2022-12-31T02:26:34.953Z,-1.25
2022-12-31T02:29:28.899Z,-1.23
2022-12-31T02:32:20.375Z,-1.18
2022-12-31T02:35:30.262Z,-1.13
2022-12-31T02:38:26.884Z,-1.10
2022-12-31T02:41:36.514Z,-1.08
2022-12-31T02:44:27.832Z,-1.07
2022-12-31T02:47:34.022Z,-1.08
2022-12-31T02:50:21.446Z,-1.14
2022-12-31T02:53:38.338Z,-1.23
2022-12-31T02:56:48.954Z,-1.34
2022-12-31T03:03:37.970Z,-0.89
2022-12-31T03:06:23.095Z,-0.85
2022-12-31T03:09:13.781Z,-0.88
2022-12-31T03:12:18.144Z,-0.92
2022-12-31T03:15:06.095Z,-0.96
2022-12-31T03:18:09.707Z,-0.99
2022-12-31T03:21:13.147Z,-1.02
2022-12-31T03:24:16.555Z,-1.07
2022-12-31T03:27:01.388Z,-1.12
2022-12-31T03:29:46.242Z,-1.17
2022-12-31T03:32:31.306Z,-1.23
2022-12-31T03:35:17.101Z,-1.27
2022-12-31T03:38:03.275Z,-1.32
2022-12-31T03:40:50.989Z,-1.36
2022-12-31T03:43:35.643Z,-1.42
2022-12-31T03:46:20.863Z,-1.45
2022-12-31T03:49:05.613Z,-1.47
2022-12-31T03:51:50.719Z,-1.43
2022-12-31T03:54:35.274Z,-1.42
2022-12-31T03:57:20.002Z,-1.40
2022-12-31T04:00:06.964Z,-1.43
2022-12-31T04:02:52.597Z,-1.47
2022-12-31T04:05:37.312Z,-1.52
2022-12-31T04:08:22.689Z,-1.58
2022-12-31T04:11:07.307Z,-1.62
2022-12-31T04:13:52.207Z,-1.66
2022-12-31T04:16:37.362Z,-1.70
2022-12-31T04:19:22.228Z,-1.77
2022-12-31T04:22:06.857Z,-1.79
2022-12-31T04:24:51.775Z,-1.81
2022-12-31T04:27:40.268Z,-1.87
2022-12-31T04:30:26.167Z,-1.92
2022-12-31T04:33:12.069Z,-1.98
2022-12-31T04:36:07.532Z,-2.04
2022-12-31T04:38:52.515Z,-2.09
2022-12-31T04:41:37.320Z,-2.12
2022-12-31T04:44:22.236Z,-2.17
2022-12-31T04:47:07.204Z,-2.17
2022-12-31T04:49:52.141Z,-2.18
2022-12-31T04:52:42.346Z,-2.19
2022-12-31T04:55:28.013Z,-2.16
2022-12-31T04:58:13.028Z,-2.17
2022-12-31T05:00:57.900Z,-2.16
2022-12-31T05:03:42.760Z,-2.15
2022-12-31T05:06:27.544Z,-2.18
2022-12-31T05:09:12.410Z,-2.18
2022-12-31T05:11:56.994Z,-2.19
2022-12-31T05:14:41.840Z,-2.18
2022-12-31T05:17:26.474Z,-2.17
2022-12-31T05:20:11.409Z,-2.14
2022-12-31T05:22:56.000Z,-2.12
2022-12-31T05:25:42.852Z,-2.11
2022-12-31T05:28:28.034Z,-2.13
2022-12-31T05:31:12.991Z,-2.14
2022-12-31T05:33:57.958Z,-2.16
2022-12-31T05:36:42.500Z,-2.12
2022-12-31T05:39:27.222Z,-2.09
2022-12-31T05:42:11.971Z,-2.05
2022-12-31T05:44:56.823Z,-2.01
2022-12-31T05:47:42.194Z,-1.98
2022-12-31T05:50:27.076Z,-1.99
2022-12-31T05:53:14.060Z,-1.96
2022-12-31T05:55:59.571Z,-1.92
2022-12-31T05:58:44.065Z,-1.88
2022-12-31T06:01:28.604Z,-1.82
2022-12-31T06:04:13.517Z,-1.73
2022-12-31T06:06:58.309Z,-1.67
2022-12-31T06:09:43.155Z,-1.60
2022-12-31T06:12:27.995Z,-1.52
2022-12-31T06:15:12.537Z,-1.44
2022-12-31T06:17:57.350Z,-1.38
2022-12-31T06:20:42.057Z,-1.28
2022-12-31T06:23:26.847Z,-1.18
2022-12-31T06:26:11.859Z,-1.04
2022-12-31T06:28:56.751Z,-0.91
2022-12-31T06:31:41.557Z,-0.74
2022-12-31T06:34:26.103Z,-0.64
2022-12-31T06:37:10.718Z,-0.47
2022-12-31T06:39:55.663Z,-0.36
2022-12-31T06:42:41.632Z,-0.30
2022-12-31T06:45:26.131Z,-0.23
2022-12-31T06:48:11.011Z,-0.14
2022-12-31T06:50:55.718Z,-0.11
2022-12-31T06:53:40.963Z,-0.09
2022-12-31T06:56:34.349Z,-0.05
2022-12-31T06:59:28.648Z,0.02
2022-12-31T07:02:38.009Z,0.05
2022-12-31T07:05:29.127Z,0.13
2022-12-31T07:08:41.861Z,0.19
2022-12-31T07:11:32.113Z,0.25
2022-12-31T07:14:28.637Z,0.32
2022-12-31T07:17:44.360Z,0.41
2022-12-31T07:20:29.836Z,0.50
2022-12-31T07:23:16.023Z,0.56
2022-12-31T07:26:17.153Z,0.69
2022-12-31T07:29:39.884Z,0.83
2022-12-31T07:32:38.863Z,0.97
2022-12-31T07:35:35.670Z,1.10
2022-12-31T07:38:39.304Z,1.26
2022-12-31T07:41:23.876Z,1.40
2022-12-31T07:44:21.002Z,1.59
2022-12-31T07:47:19.189Z,1.76
2022-12-31T07:50:04.770Z,1.96
2022-12-31T07:52:49.904Z,2.12
2022-12-31T07:55:34.786Z,2.34
2022-12-31T07:58:24.505Z,2.54
2022-12-31T08:01:11.912Z,2.77
2022-12-31T08:04:06.745Z,2.96
2022-12-31T08:07:12.388Z,3.09
2022-12-31T08:10:00.032Z,3.19
2022-12-31T08:12:46.560Z,3.23
2022-12-31T08:15:31.936Z,3.26
2022-12-31T08:18:17.119Z,3.30
2022-12-31T08:21:05.364Z,3.40
2022-12-31T08:24:06.295Z,3.34
2022-12-31T08:27:11.837Z,3.48
2022-12-31T08:30:08.993Z,3.66
2022-12-31T08:33:13.349Z,3.88
2022-12-31T08:36:19.525Z,4.08
2022-12-31T08:39:22.584Z,4.23
2022-12-31T08:42:16.596Z,4.54
2022-12-31T08:45:46.666Z,4.84
2022-12-31T08:48:38.580Z,4.92
2022-12-31T08:51:25.925Z,5.09
2022-12-31T08:54:11.757Z,5.27
2022-12-31T08:57:26.974Z,5.14
2022-12-31T09:00:17.729Z,5.18
2022-12-31T09:03:02.330Z,5.20
2022-12-31T09:06:05.738Z,5.14
2022-12-31T09:09:14.808Z,5.18
2022-12-31T09:12:17.831Z,5.23
2022-12-31T09:15:36.664Z,5.23
2022-12-31T09:18:27.059Z,5.09
2022-12-31T09:21:15.569Z,5.25
2022-12-31T09:24:05.834Z,5.31
2022-12-31T09:27:01.253Z,5.41
2022-12-31T09:30:05.538Z,5.59
2022-12-31T09:32:58.593Z,5.58
2022-12-31T09:35:57.801Z,5.65
2022-12-31T09:38:51.961Z,5.67
2022-12-31T09:41:51.836Z,5.81
2022-12-31T09:44:54.896Z,5.89
2022-12-31T09:48:23.541Z,6.09
2022-12-31T09:51:30.309Z,5.96
2022-12-31T09:54:27.804Z,6.11
2022-12-31T09:57:15.735Z,6.05
2022-12-31T10:00:16.723Z,6.21
2022-12-31T10:03:30.118Z,6.31
2022-12-31T10:06:47.710Z,6.45
2022-12-31T10:09:51.360Z,6.60
2022-12-31T10:12:41.982Z,6.66
2022-12-31T10:15:45.313Z,6.68
2022-12-31T10:18:45.948Z,6.71
2022-12-31T14:57:16.215Z,6.48
2022-12-31T15:00:23.186Z,6.45
2022-12-31T15:03:14.356Z,6.50
2022-12-31T15:06:20.675Z,6.52
2022-12-31T15:09:14.257Z,6.52
2022-12-31T15:12:20.079Z,6.54
2022-12-31T15:15:43.019Z,6.50
2022-12-31T15:19:04.929Z,6.52
2022-12-31T15:21:49.448Z,6.50
2022-12-31T15:24:34.822Z,6.48
2022-12-31T15:27:37.736Z,6.47
2022-12-31T15:30:47.302Z,6.39
2022-12-31T15:33:52.039Z,6.31
2022-12-31T15:36:52.476Z,6.24
2022-12-31T15:39:40.776Z,6.17
2022-12-31T15:42:39.180Z,6.13
2022-12-31T15:45:38.634Z,6.06
2022-12-31T15:48:51.663Z,6.00
2022-12-31T15:52:01.738Z,5.88
2022-12-31T15:54:52.548Z,5.84
2022-12-31T15:57:40.684Z,5.89
2022-12-31T16:00:34.796Z,5.99
2022-12-31T16:03:23.075Z,6.16
2022-12-31T16:06:12.811Z,6.23
2022-12-31T16:08:58.177Z,6.28
2022-12-31T16:11:43.872Z,6.30
2022-12-31T16:14:51.271Z,6.30
2022-12-31T16:17:38.459Z,6.35
2022-12-31T16:20:26.655Z,6.35
2022-12-31T16:23:25.684Z,6.39
2022-12-31T16:26:10.660Z,6.42
2022-12-31T16:28:59.948Z,6.44
2022-12-31T16:31:46.852Z,6.47
2022-12-31T16:34:37.025Z,6.52
2022-12-31T16:37:23.144Z,6.52
2022-12-31T16:40:17.509Z,6.58
2022-12-31T16:43:02.343Z,6.61
2022-12-31T16:45:48.044Z,6.62
2022-12-31T16:48:33.051Z,6.64
2022-12-31T16:51:22.651Z,6.62
2022-12-31T16:54:20.339Z,6.66
2022-12-31T16:57:05.702Z,6.67
2022-12-31T17:00:15.017Z,6.66
2022-12-31T17:03:17.108Z,6.66
2022-12-31T17:06:12.054Z,6.66
2022-12-31T17:09:00.029Z,6.72
2022-12-31T17:12:24.551Z,6.71
2022-12-31T17:15:23.318Z,6.74
2022-12-31T17:18:17.113Z,6.76
2022-12-31T17:21:09.307Z,6.82
2022-12-31T17:23:58.765Z,6.84
2022-12-31T17:26:44.355Z,6.84
2022-12-31T17:29:29.132Z,6.83
2022-12-31T17:32:36.728Z,6.87
2022-12-31T17:35:32.091Z,6.86
2022-12-31T17:38:23.034Z,6.83
2022-12-31T17:41:07.694Z,6.84
2022-12-31T17:43:56.452Z,6.85
2022-12-31T17:46:41.729Z,6.89
2022-12-31T17:49:30.614Z,6.87
2022-12-31T17:52:17.407Z,6.91
2022-12-31T17:55:02.324Z,6.96
2022-12-31T17:57:53.310Z,6.97
2022-12-31T18:00:38.385Z,7.00
2022-12-31T18:03:23.356Z,7.03
2022-12-31T18:06:16.064Z,7.03
2022-12-31T18:09:01.955Z,7.09
2022-12-31T18:11:47.044Z,7.10
2022-12-31T18:14:31.792Z,7.10
2022-12-31T18:17:16.679Z,7.11
2022-12-31T18:20:05.774Z,7.14
2022-12-31T18:22:51.811Z,7.17
2022-12-31T18:28:20.935Z,7.22
2022-12-31T18:31:05.606Z,7.27
2022-12-31T18:33:53.076Z,7.22
2022-12-31T18:36:37.718Z,7.27
2022-12-31T18:39:22.721Z,7.29
2022-12-31T18:42:12.334Z,7.31
2022-12-31T18:44:57.245Z,7.33
2022-12-31T18:47:42.159Z,7.31
2022-12-31T18:50:27.233Z,7.27
2022-12-31T18:53:21.242Z,7.31
2022-12-31T18:56:14.108Z,7.29
2022-12-31T18:58:59.119Z,7.27
2022-12-31T19:01:43.911Z,7.26
2022-12-31T19:04:28.705Z,7.23
2022-12-31T19:07:14.031Z,7.20
2022-12-31T19:09:58.952Z,7.17
2022-12-31T19:12:44.073Z,7.25
2022-12-31T19:15:33.174Z,7.30
2022-12-31T19:18:18.813Z,7.32
2022-12-31T19:21:04.569Z,7.33
2022-12-31T19:23:50.200Z,7.30
2022-12-31T19:26:39.642Z,7.31
2022-12-31T19:29:28.485Z,7.30
2022-12-31T19:32:13.243Z,7.27
2022-12-31T19:34:57.735Z,7.24
2022-12-31T19:37:44.540Z,7.15
2022-12-31T19:40:30.271Z,7.05
2022-12-31T19:43:17.245Z,6.85
2022-12-31T19:46:03.593Z,6.75
2022-12-31T19:48:48.433Z,6.61
2022-12-31T19:51:33.256Z,6.58
2022-12-31T19:54:18.269Z,6.65
2022-12-31T19:57:03.451Z,6.81
2022-12-31T19:59:48.489Z,6.83
2022-12-31T20:02:33.794Z,6.94
2022-12-31T20:05:18.941Z,6.99
2022-12-31T20:08:03.926Z,7.08
2022-12-31T20:10:50.032Z,7.14
2022-12-31T20:13:35.907Z,7.15
2022-12-31T20:16:23.818Z,7.10
2022-12-31T20:19:09.609Z,7.05
2022-12-31T20:21:54.913Z,6.95
2022-12-31T20:24:39.872Z,6.91
2022-12-31T20:27:24.746Z,6.81
2022-12-31T20:30:10.285Z,6.78
2022-12-31T20:32:55.401Z,6.84
2022-12-31T20:35:40.189Z,6.91
2022-12-31T20:38:27.148Z,6.98
2022-12-31T20:41:15.089Z,7.06
2022-12-31T20:44:00.089Z,7.10
2022-12-31T20:46:44.670Z,7.16
2022-12-31T20:49:52.514Z,7.17
2022-12-31T20:52:34.355Z,7.20
2022-12-31T20:55:18.962Z,7.17
2022-12-31T20:58:05.562Z,7.20
2022-12-31T21:00:51.818Z,7.22
2022-12-31T21:04:04.514Z,7.22
2022-12-31T21:06:43.054Z,7.23
2022-12-31T21:09:27.982Z,7.26
2022-12-31T21:12:31.461Z,7.27
2022-12-31T21:15:16.398Z,7.25
2022-12-31T21:18:01.243Z,7.25
2022-12-31T21:20:50.821Z,7.23
2022-12-31T21:23:35.831Z,7.23
2022-12-31T21:26:20.598Z,7.28
2022-12-31T21:29:05.240Z,7.31
2022-12-31T21:31:50.059Z,7.34
2022-12-31T21:34:34.711Z,7.39
2022-12-31T21:37:19.882Z,7.47
2022-12-31T21:40:05.390Z,7.51
2022-12-31T21:42:50.491Z,7.56
2022-12-31T21:45:35.480Z,7.60
2022-12-31T21:48:20.744Z,7.66
2022-12-31T21:51:15.280Z,7.72
2022-12-31T21:53:59.845Z,7.74
2022-12-31T21:56:44.274Z,7.77
2022-12-31T21:59:48.950Z,7.79
2022-12-31T22:02:59.125Z,7.85
2022-12-31T22:05:47.200Z,7.86
2022-12-31T22:08:32.500Z,7.96
2022-12-31T22:11:19.863Z,8.01
2022-12-31T22:14:04.656Z,8.09
2022-12-31T22:16:49.617Z,8.16
2022-12-31T22:19:54.486Z,8.23
2022-12-31T22:22:38.851Z,8.29
2022-12-31T22:25:23.591Z,8.32
2022-12-31T22:31:18.329Z,8.35
2022-12-31T22:34:03.278Z,8.38
2022-12-31T22:36:47.678Z,8.36
2022-12-31T22:39:43.369Z,8.35
2022-12-31T22:42:29.285Z,8.37
2022-12-31T22:45:14.233Z,8.32
2022-12-31T22:47:58.729Z,8.33
2022-12-31T22:50:43.957Z,8.32
2022-12-31T22:53:28.874Z,8.32
2022-12-31T22:56:16.954Z,8.32
2022-12-31T22:59:02.129Z,8.29
2022-12-31T23:01:46.939Z,8.27
2022-12-31T23:04:31.779Z,8.27
2022-12-31T23:07:16.712Z,8.29
2022-12-31T23:10:20.260Z,8.32
2022-12-31T23:13:23.703Z,8.32
2022-12-31T23:16:26.915Z,8.32
2022-12-31T23:19:30.637Z,8.33
2022-12-31T23:22:34.331Z,8.32
2022-12-31T23:25:19.253Z,8.34
2022-12-31T23:28:05.241Z,8.34
2022-12-31T23:30:51.491Z,8.35
2022-12-31T23:33:36.324Z,8.34
2022-12-31T23:36:21.076Z,8.33
2022-12-31T23:39:05.681Z,8.33
2022-12-31T23:41:50.128Z,8.37
2022-12-31T23:44:35.315Z,8.33
2022-12-31T23:47:19.715Z,8.33
2022-12-31T23:50:05.149Z,8.32
2022-12-31T23:52:50.253Z,8.32
2022-12-31T23:55:35.422Z,8.33
2022-12-31T23:58:20.917Z,8.33
